United States > Florida

Delray Beach, FL (33445)

12:11 PM EDT on July 07, 2015 (GMT -0400)
Bexley Park | | Change Station
CLOSE
Current Station
Personal Weather Station
Location: Delray Beach, FL
Elevation: 15 ft
Nearby Weather Stations

Elev 15 ft 26.48 °N, 80.12 °W | Updated 10 minutes ago

Overcast
Overcast
85.9 °F
Feels Like 95 °F
N
1.0
Wind Variable Wind from ESE
Gusts 7.0 mph

Today
High -- | Low -- °F
--% Chance of Precip.
Yesterday
High -- | Low -- °F
Precip. -- in
6:33 AM 8:17 PM
Waning Gibbous, 63% visible
Pressure 30.19 in
Visibility 10.0 miles
Clouds Few 2800 ft
Mostly Cloudy 14000 ft
Mostly Cloudy 23000 ft
Heat Index 95 °F
Dew Point 75 °F
Humidity 70%
Rainfall 0.00 in
Snow Depth Not available.
UV 5.0 out of 12
Pollen 4.20 out of 12
Air Quality Not available.
Flu Activity Not available.
METAR KPMP 071553Z 12007KT 10SM FEW028 BKN140 BKN230 28/21 A3018 RMK AO2 SLP221 T02780211

More Conditions Fewer Conditions

Pressure 30.19 in
Visibility 10.0 miles
Clouds Few 2800 ft
Mostly Cloudy 14000 ft
Mostly Cloudy 23000 ft
Heat Index 95 °F
Dew Point 75 °F
Humidity 70%
Rainfall 0.00 in
Snow Depth Not available.
UV 5.0 out of 12
Pollen 4.20 out of 12
Air Quality Not available.
Flu Activity Not available.
METAR KPMP 071553Z 12007KT 10SM FEW028 BKN140 BKN230 28/21 A3018 RMK AO2 SLP221 T02780211

More Conditions Fewer Conditions

Nowcast | as of 10:32 am EDT on July 7, 2015

Scattered showers and thunderstorms will continue to develop across the eastern half of South Florida as well as the Atlantic waters through the late morning hours. Any storm that does develop could contain frequent lightning, heavy downpours, small hail and gusty winds. These storms are expected to continue into the afternoon hours.

×

10-Day Weather Forecast

×

Almanac

Astronomy

Jul. 07, 2015 Rise Set
Actual Time
Civil Twilight
Nautical Twilight
Astronomical Twilight
Moon
Length of Visible Light
Length of Day
Tomorrow will be .
, % of the Moon is Illuminated

Today's Extremes

State Highs State Lows

Community

WunderPhotos

Upload Photos

1,835,829 photos uploaded!

WunderBlogs® & News

Nearby

Air Quality

  Air Quality AQ Index Pollutant
Not available.

Snow Depth

Station Depth Elevation

Earthquake Activity

City Distance Mag. Time & Date
Minimum magnitude displayed is 2.5.

Coastal Water Temperatures

Place Temperature

Stations

Nearby Weather Stations

Station Location Temp. Windchill Dew Point Humidity Wind Precip. Elev Updated Type